Time;durP1;ratioP1;P1;durP2;ratioP2;P2;SDS_P1;SDS_P2;PMS_P1;PMS_P2;Temp;Humidity;BMP_temperature;BMP_pressure;BME280_temperature;BME280_humidity;BME280_pressure;Samples;Min_cycle;Max_cycle;Signal;HPM_P1;HPM_P2
2023/10/28 00:00:29;;;;;;;16.92;9.98;;;;;;;;;;1036896;28;20053;-66
2023/10/28 00:01:19;;;;;;;21.52;9.60;;;;;;;;;;1037361;28;20375;-66
2023/10/28 00:01:51;;;;;;;16.85;9.15;;;;;;;;;;1035752;28;20461;-65
2023/10/28 00:02:22;;;;;;;15.65;9.02;;;;;;;;;;1036553;28;20083;-65
2023/10/28 00:02:52;;;;;;;17.17;9.13;;;;;;;;;;1036912;28;20076;-66
2023/10/28 00:03:23;;;;;;;18.55;9.95;;;;;;;;;;1037723;28;20104;-66
2023/10/28 00:03:54;;;;;;;21.27;10.18;;;;;;;;;;1037234;28;20053;-65
2023/10/28 00:04:24;;;;;;;19.35;10.77;;;;;;;;;;1037002;28;20076;-66
2023/10/28 00:04:55;;;;;;;20.73;11.40;;;;;;;;;;1037043;28;20564;-66
2023/10/28 00:05:25;;;;;;;19.35;10.20;;;;;;;;;;1037172;28;20103;-67
2023/10/28 00:05:56;;;;;;;21.10;10.93;;;;;;;;;;1038477;28;20390;-65
2023/10/28 00:06:26;;;;;;;23.25;10.93;;;;;;;;;;1035022;28;20049;-66
2023/10/28 00:06:56;;;;;;;21.13;9.85;;;;;;;;;;1037823;28;20101;-66
2023/10/28 00:07:27;;;;;;;17.55;10.60;;;;;;;;;;1035759;28;20099;-66
2023/10/28 00:07:58;;;;;;;20.55;12.13;;;;;;;;;;1038091;28;20145;-66
2023/10/28 00:08:28;;;;;;;24.50;11.20;;;;;;;;;;1037039;28;20703;-65
2023/10/28 00:08:59;;;;;;;20.75;10.82;;;;;;;;;;1038250;28;20580;-65
2023/10/28 00:09:30;;;;;;;17.20;9.77;;;;;;;;;;1035823;28;20132;-66
2023/10/28 00:10:01;;;;;;;17.55;9.93;;;;;;;;;;1036778;28;20441;-65
2023/10/28 00:10:35;;;;;;;19.40;10.10;;;;;;;;;;1037031;28;20807;-66
2023/10/28 00:11:07;;;;;;;17.52;9.73;;;;;;;;;;1036250;28;20057;-65
2023/10/28 00:11:38;;;;;;;22.10;10.18;;;;;;;;;;1036873;28;20065;-66
2023/10/28 00:12:08;;;;;;;20.67;10.80;;;;;;;;;;1036356;28;20045;-65
2023/10/28 00:12:40;;;;;;;18.52;10.60;;;;;;;;;;1036667;28;20057;-65
2023/10/28 00:13:12;;;;;;;18.90;9.57;;;;;;;;;;1038043;28;20049;-65
2023/10/28 00:13:42;;;;;;;20.67;10.05;;;;;;;;;;1036493;28;20060;-67
2023/10/28 00:14:14;;;;;;;16.75;9.35;;;;;;;;;;1037688;28;20213;-66
2023/10/28 00:14:44;;;;;;;17.73;9.90;;;;;;;;;;1036463;28;21809;-66
2023/10/28 00:15:18;;;;;;;19.42;10.73;;;;;;;;;;1036697;28;20834;-66
2023/10/28 00:15:49;;;;;;;20.10;10.75;;;;;;;;;;1035704;28;20106;-67
2023/10/28 00:16:19;;;;;;;18.17;10.13;;;;;;;;;;1037607;28;20041;-67
2023/10/28 00:16:50;;;;;;;20.98;10.13;;;;;;;;;;1035861;28;20056;-67
2023/10/28 00:17:20;;;;;;;19.70;10.20;;;;;;;;;;1037959;28;20057;-65
2023/10/28 00:17:51;;;;;;;20.13;11.23;;;;;;;;;;1036406;28;20127;-66
2023/10/28 00:18:22;;;;;;;18.55;10.02;;;;;;;;;;1037038;28;20061;-66
2023/10/28 00:18:52;;;;;;;22.30;11.48;;;;;;;;;;1037208;28;20050;-66
2023/10/28 00:19:24;;;;;;;25.52;11.60;;;;;;;;;;1036606;28;20092;-65
2023/10/28 00:19:54;;;;;;;20.48;10.65;;;;;;;;;;1037196;28;20436;-66
2023/10/28 00:20:29;;;;;;;19.90;10.70;;;;;;;;;;1036660;28;20045;-66
2023/10/28 00:20:59;;;;;;;22.50;10.93;;;;;;;;;;1036187;28;20398;-67
2023/10/28 00:21:30;;;;;;;20.58;11.48;;;;;;;;;;1035595;28;20481;-66
2023/10/28 00:22:00;;;;;;;22.80;11.32;;;;;;;;;;1037452;28;20119;-66
2023/10/28 00:22:31;;;;;;;22.17;11.25;;;;;;;;;;1036731;28;20144;-66
2023/10/28 00:23:06;;;;;;;23.88;12.65;;;;;;;;;;1037401;28;20052;-66
2023/10/28 00:23:37;;;;;;;19.95;10.13;;;;;;;;;;1037720;28;20053;-65
2023/10/28 00:24:08;;;;;;;19.75;10.75;;;;;;;;;;1037990;28;20407;-65
2023/10/28 00:24:41;;;;;;;19.70;11.13;;;;;;;;;;1037720;28;20061;-66
2023/10/28 00:25:13;;;;;;;19.35;11.07;;;;;;;;;;1038378;28;20049;-66
2023/10/28 00:25:44;;;;;;;19.45;11.13;;;;;;;;;;1038536;28;20132;-65
2023/10/28 00:26:15;;;;;;;18.17;10.98;;;;;;;;;;1036784;28;20060;-66
2023/10/28 00:26:47;;;;;;;20.30;10.57;;;;;;;;;;1036259;28;20140;-66
2023/10/28 00:27:18;;;;;;;18.00;10.52;;;;;;;;;;1036589;28;20518;-66
2023/10/28 00:27:49;;;;;;;21.05;10.75;;;;;;;;;;1038228;28;20530;-66
2023/10/28 00:28:20;;;;;;;18.73;11.18;;;;;;;;;;1037736;28;20053;-66
2023/10/28 00:28:51;;;;;;;18.15;10.77;;;;;;;;;;1037529;28;20062;-65
2023/10/28 00:29:21;;;;;;;19.10;10.98;;;;;;;;;;1037266;28;20060;-66
2023/10/28 00:29:52;;;;;;;20.05;10.55;;;;;;;;;;1037227;28;20060;-66
2023/10/28 00:30:23;;;;;;;17.95;10.35;;;;;;;;;;1036210;28;20064;-65
2023/10/28 00:30:54;;;;;;;18.95;10.48;;;;;;;;;;1036408;28;20068;-66
2023/10/28 00:31:24;;;;;;;20.05;11.80;;;;;;;;;;1036759;28;20041;-65
2023/10/28 00:31:55;;;;;;;18.05;10.65;;;;;;;;;;1038354;28;20073;-66
2023/10/28 00:32:26;;;;;;;18.23;10.55;;;;;;;;;;1035644;28;20635;-66
2023/10/28 00:32:59;;;;;;;16.88;10.82;;;;;;;;;;1038699;28;20057;-68
2023/10/28 00:33:30;;;;;;;21.30;10.90;;;;;;;;;;1035754;28;20104;-66
2023/10/28 00:34:00;;;;;;;22.55;10.85;;;;;;;;;;1038837;28;20053;-66
2023/10/28 00:34:32;;;;;;;19.40;10.75;;;;;;;;;;1037200;28;20049;-66
2023/10/28 00:35:05;;;;;;;19.02;9.95;;;;;;;;;;1035928;28;20110;-65
2023/10/28 00:35:36;;;;;;;18.95;11.07;;;;;;;;;;1036143;28;20045;-67
2023/10/28 00:36:09;;;;;;;20.75;11.00;;;;;;;;;;1036947;28;20049;-66
2023/10/28 00:36:39;;;;;;;25.35;11.95;;;;;;;;;;1035925;28;20057;-66
2023/10/28 00:37:11;;;;;;;21.67;11.80;;;;;;;;;;1035427;28;20134;-65
2023/10/28 00:37:42;;;;;;;19.02;11.25;;;;;;;;;;1037458;28;20128;-65
2023/10/28 00:38:13;;;;;;;19.73;11.02;;;;;;;;;;1037252;28;20049;-66
2023/10/28 00:38:43;;;;;;;18.33;11.68;;;;;;;;;;1036762;28;20052;-66
2023/10/28 00:39:14;;;;;;;19.17;10.95;;;;;;;;;;1036819;28;20045;-66
2023/10/28 00:39:44;;;;;;;18.30;10.68;;;;;;;;;;1037774;28;20060;-65
2023/10/28 00:40:15;;;;;;;24.65;12.60;;;;;;;;;;1036635;28;20077;-67
2023/10/28 00:40:46;;;;;;;22.00;12.00;;;;;;;;;;1037966;28;20772;-66
2023/10/28 00:41:17;;;;;;;19.25;11.32;;;;;;;;;;1038019;28;20868;-66
2023/10/28 00:41:47;;;;;;;20.65;11.90;;;;;;;;;;1035252;28;20171;-65
2023/10/28 00:42:18;;;;;;;21.83;12.43;;;;;;;;;;1036136;28;20441;-66
2023/10/28 00:42:48;;;;;;;21.52;12.48;;;;;;;;;;1036603;28;20053;-65
2023/10/28 00:43:22;;;;;;;22.38;12.85;;;;;;;;;;1037256;28;20053;-65
2023/10/28 00:43:53;;;;;;;21.80;11.95;;;;;;;;;;1036627;28;20045;-66
2023/10/28 00:44:24;;;;;;;20.45;11.90;;;;;;;;;;1035796;28;20062;-66
2023/10/28 00:44:55;;;;;;;23.00;11.65;;;;;;;;;;1036314;28;20054;-66
2023/10/28 00:45:27;;;;;;;20.58;11.90;;;;;;;;;;1037115;28;20030;-66
2023/10/28 00:45:59;;;;;;;21.55;12.50;;;;;;;;;;1036809;28;20033;-66
2023/10/28 00:46:30;;;;;;;22.70;12.77;;;;;;;;;;1036506;28;20057;-65
2023/10/28 00:47:02;;;;;;;22.45;12.82;;;;;;;;;;1036197;28;20033;-66
2023/10/28 00:47:36;;;;;;;25.27;13.85;;;;;;;;;;1036018;28;20057;-65
2023/10/28 00:48:07;;;;;;;23.83;13.90;;;;;;;;;;1036711;28;20049;-67
2023/10/28 00:48:38;;;;;;;21.42;12.68;;;;;;;;;;1035911;28;20413;-66
2023/10/28 00:49:09;;;;;;;25.38;13.32;;;;;;;;;;1038061;28;20045;-67
2023/10/28 00:49:42;;;;;;;24.20;13.70;;;;;;;;;;1037060;28;20097;-65
2023/10/28 00:50:14;;;;;;;27.00;14.15;;;;;;;;;;1037453;28;20053;-65
2023/10/28 00:50:45;;;;;;;24.10;14.15;;;;;;;;;;1037214;28;20057;-66
2023/10/28 00:51:15;;;;;;;23.67;13.48;;;;;;;;;;1038155;28;20053;-66
2023/10/28 00:51:46;;;;;;;27.70;13.63;;;;;;;;;;1037371;28;20095;-65
2023/10/28 00:52:19;;;;;;;28.25;15.18;;;;;;;;;;1035758;28;20046;-65
2023/10/28 00:52:54;;;;;;;27.80;14.32;;;;;;;;;;1035316;28;20819;-67
2023/10/28 00:53:25;;;;;;;27.13;15.07;;;;;;;;;;1037579;28;20049;-66
2023/10/28 00:53:57;;;;;;;31.20;15.85;;;;;;;;;;1037862;28;20060;-65
2023/10/28 00:54:28;;;;;;;30.25;15.35;;;;;;;;;;1036018;28;20045;-66
2023/10/28 00:54:59;;;;;;;27.73;15.45;;;;;;;;;;1036753;28;20065;-66
2023/10/28 00:55:30;;;;;;;25.92;15.38;;;;;;;;;;1037858;28;20052;-66
2023/10/28 00:56:01;;;;;;;27.45;15.77;;;;;;;;;;1038125;28;20037;-66
2023/10/28 00:56:32;;;;;;;31.85;15.73;;;;;;;;;;1037247;28;20049;-66
2023/10/28 00:57:02;;;;;;;27.63;15.65;;;;;;;;;;1037345;28;20049;-66
2023/10/28 00:57:33;;;;;;;33.00;17.17;;;;;;;;;;1037824;28;20088;-66
2023/10/28 00:58:05;;;;;;;30.27;16.90;;;;;;;;;;1037962;28;20056;-66
2023/10/28 00:58:36;;;;;;;26.52;15.40;;;;;;;;;;1036238;28;20069;-66
2023/10/28 00:59:07;;;;;;;28.45;15.88;;;;;;;;;;1034860;28;20521;-66
2023/10/28 00:59:38;;;;;;;26.52;14.55;;;;;;;;;;1036624;28;20092;-66
2023/10/28 01:00:14;;;;;;;26.15;15.05;;;;;;;;;;1037886;28;20080;-66
2023/10/28 01:00:45;;;;;;;27.15;15.27;;;;;;;;;;1038014;28;20500;-66
2023/10/28 01:01:15;;;;;;;26.58;14.65;;;;;;;;;;1036897;28;20902;-66
2023/10/28 01:01:46;;;;;;;27.98;16.50;;;;;;;;;;1036963;28;20054;-66
2023/10/28 01:02:17;;;;;;;26.02;14.38;;;;;;;;;;1033384;28;20072;-65
2023/10/28 01:02:48;;;;;;;26.60;14.98;;;;;;;;;;1033838;28;20541;-66
2023/10/28 01:03:19;;;;;;;27.60;15.60;;;;;;;;;;1038023;28;20091;-66
2023/10/28 01:03:50;;;;;;;22.45;13.63;;;;;;;;;;1036705;28;20041;-66
2023/10/28 01:04:21;;;;;;;21.83;13.32;;;;;;;;;;1038341;28;20102;-66
2023/10/28 01:04:52;;;;;;;20.08;11.60;;;;;;;;;;1037745;28;20110;-66
2023/10/28 01:05:22;;;;;;;19.27;11.23;;;;;;;;;;1038895;28;20050;-66
2023/10/28 01:05:53;;;;;;;17.25;10.52;;;;;;;;;;1035325;28;20052;-66
2023/10/28 01:06:24;;;;;;;18.58;11.35;;;;;;;;;;1038418;28;20045;-66
2023/10/28 01:06:54;;;;;;;22.55;11.95;;;;;;;;;;1038014;28;20521;-65
2023/10/28 01:07:25;;;;;;;20.40;11.68;;;;;;;;;;1036517;28;20150;-66
2023/10/28 01:07:58;;;;;;;15.55;10.38;;;;;;;;;;1037237;28;20045;-65
2023/10/28 01:08:28;;;;;;;15.13;9.75;;;;;;;;;;1038109;28;20214;-66
2023/10/28 01:08:59;;;;;;;17.23;10.63;;;;;;;;;;1038349;28;20917;-66
2023/10/28 01:09:30;;;;;;;17.27;10.05;;;;;;;;;;1038068;28;20071;-66
2023/10/28 01:10:00;;;;;;;19.23;10.40;;;;;;;;;;1038169;28;20068;-66
2023/10/28 01:10:33;;;;;;;14.32;9.80;;;;;;;;;;1037404;28;20059;-65
2023/10/28 01:11:03;;;;;;;16.55;9.88;;;;;;;;;;1037404;28;20596;-65
2023/10/28 01:11:39;;;;;;;13.73;8.95;;;;;;;;;;1037694;28;20045;-66
2023/10/28 01:12:12;;;;;;;15.48;9.23;;;;;;;;;;1038746;28;20836;-66
2023/10/28 01:12:42;;;;;;;13.50;8.98;;;;;;;;;;1036525;28;20537;-67
2023/10/28 01:13:13;;;;;;;14.95;9.93;;;;;;;;;;1038696;28;20439;-67
2023/10/28 01:13:43;;;;;;;13.70;9.18;;;;;;;;;;1037620;28;20111;-65
2023/10/28 01:14:14;;;;;;;13.07;8.88;;;;;;;;;;1038442;28;20077;-67
2023/10/28 01:14:44;;;;;;;13.40;9.32;;;;;;;;;;1036625;28;20058;-66
2023/10/28 01:15:15;;;;;;;15.25;9.70;;;;;;;;;;1037105;28;20493;-66
2023/10/28 01:15:46;;;;;;;14.48;9.73;;;;;;;;;;1036390;28;20057;-67
2023/10/28 01:16:16;;;;;;;14.50;9.48;;;;;;;;;;1035339;28;20054;-66
2023/10/28 01:16:49;;;;;;;12.75;8.35;;;;;;;;;;1035962;28;20068;-66
2023/10/28 01:17:24;;;;;;;12.20;8.68;;;;;;;;;;1036928;28;20037;-65
2023/10/28 01:17:54;;;;;;;14.73;9.60;;;;;;;;;;1034371;28;20144;-65
2023/10/28 01:18:25;;;;;;;13.25;8.68;;;;;;;;;;1036982;28;20061;-66
2023/10/28 01:18:56;;;;;;;15.82;8.48;;;;;;;;;;1035952;28;20119;-66
2023/10/28 01:19:26;;;;;;;20.80;9.45;;;;;;;;;;1037122;28;20133;-66
2023/10/28 01:19:58;;;;;;;13.43;9.02;;;;;;;;;;1037703;28;20076;-67
2023/10/28 01:20:28;;;;;;;11.90;8.43;;;;;;;;;;1037013;28;20140;-66
2023/10/28 01:21:08;;;;;;;14.15;9.05;;;;;;;;;;1035219;28;20041;-66
2023/10/28 01:21:40;;;;;;;14.57;8.82;;;;;;;;;;1037669;28;20048;-66
2023/10/28 01:22:10;;;;;;;11.05;7.63;;;;;;;;;;1036911;28;20049;-66
2023/10/28 01:22:41;;;;;;;10.55;7.30;;;;;;;;;;1035305;28;20120;-65
2023/10/28 01:23:11;;;;;;;10.85;7.35;;;;;;;;;;1038140;28;20049;-66
2023/10/28 01:23:42;;;;;;;11.18;7.53;;;;;;;;;;1037254;28;20056;-66
2023/10/28 01:24:12;;;;;;;10.82;7.28;;;;;;;;;;1036497;28;20056;-65
2023/10/28 01:24:43;;;;;;;9.65;6.65;;;;;;;;;;1036514;28;20110;-66
2023/10/28 01:25:13;;;;;;;10.80;7.38;;;;;;;;;;1037429;28;20056;-67
2023/10/28 01:25:44;;;;;;;11.52;7.85;;;;;;;;;;1037217;28;20045;-65
2023/10/28 01:26:15;;;;;;;10.48;6.93;;;;;;;;;;1037053;28;20049;-65
2023/10/28 01:26:45;;;;;;;11.07;7.40;;;;;;;;;;1036961;28;20653;-67
2023/10/28 01:27:19;;;;;;;12.55;7.30;;;;;;;;;;1038298;28;20046;-66
2023/10/28 01:27:49;;;;;;;10.38;7.35;;;;;;;;;;1035867;28;20060;-66
2023/10/28 01:28:20;;;;;;;11.32;7.07;;;;;;;;;;1036510;28;20065;-65
2023/10/28 01:28:50;;;;;;;10.07;6.75;;;;;;;;;;1036601;28;20048;-65
2023/10/28 01:29:22;;;;;;;11.00;7.10;;;;;;;;;;1038674;28;20045;-66
2023/10/28 01:29:53;;;;;;;11.68;6.97;;;;;;;;;;1036485;28;20053;-66
2023/10/28 01:30:24;;;;;;;9.93;7.07;;;;;;;;;;1036755;28;20875;-65
2023/10/28 01:30:56;;;;;;;11.60;7.25;;;;;;;;;;1035289;28;20076;-66
2023/10/28 01:31:27;;;;;;;9.73;6.45;;;;;;;;;;1035762;28;20041;-65
2023/10/28 01:31:57;;;;;;;9.13;6.65;;;;;;;;;;1036321;28;20673;-66
2023/10/28 01:32:28;;;;;;;10.30;6.50;;;;;;;;;;1036975;28;20485;-66
2023/10/28 01:32:58;;;;;;;10.93;7.15;;;;;;;;;;1037182;28;20099;-66
2023/10/28 01:33:28;;;;;;;10.20;6.15;;;;;;;;;;1037427;28;20108;-66
2023/10/28 01:33:59;;;;;;;8.90;6.55;;;;;;;;;;1037015;28;20045;-66
2023/10/28 01:34:30;;;;;;;15.43;5.97;;;;;;;;;;1037130;28;20095;-66
2023/10/28 01:35:01;;;;;;;10.57;6.47;;;;;;;;;;1038115;28;20041;-65
2023/10/28 01:35:31;;;;;;;9.85;6.75;;;;;;;;;;1035982;28;20049;-66
2023/10/28 01:36:02;;;;;;;11.52;6.13;;;;;;;;;;1035588;28;20056;-66
2023/10/28 01:36:32;;;;;;;8.27;6.10;;;;;;;;;;1036521;28;20482;-65
2023/10/28 01:37:03;;;;;;;9.27;6.38;;;;;;;;;;1038182;28;20057;-66
2023/10/28 01:37:33;;;;;;;12.68;6.55;;;;;;;;;;1035715;28;20073;-66
2023/10/28 01:38:04;;;;;;;9.77;7.13;;;;;;;;;;1038485;28;20138;-66
2023/10/28 01:38:36;;;;;;;10.80;7.13;;;;;;;;;;1038192;28;20111;-66
2023/10/28 01:39:07;;;;;;;10.70;6.95;;;;;;;;;;1037808;28;20045;-67
2023/10/28 01:39:38;;;;;;;10.50;6.57;;;;;;;;;;1038239;28;20056;-67
2023/10/28 01:40:17;;;;;;;11.90;7.80;;;;;;;;;;1037369;28;20061;-66
2023/10/28 01:40:47;;;;;;;10.48;7.20;;;;;;;;;;1037454;28;20045;-65
2023/10/28 01:41:18;;;;;;;12.13;6.80;;;;;;;;;;1037564;28;20049;-66
2023/10/28 01:41:49;;;;;;;10.55;6.97;;;;;;;;;;1038233;28;20045;-65
2023/10/28 01:42:20;;;;;;;13.02;6.75;;;;;;;;;;1036887;28;20434;-66
2023/10/28 01:42:51;;;;;;;9.02;6.72;;;;;;;;;;1037938;28;20061;-65
2023/10/28 01:43:22;;;;;;;9.38;6.72;;;;;;;;;;1035042;28;20073;-66
2023/10/28 01:43:52;;;;;;;10.32;6.95;;;;;;;;;;1036947;28;20119;-66
2023/10/28 01:44:23;;;;;;;11.40;7.40;;;;;;;;;;1037570;28;20521;-65
2023/10/28 01:44:53;;;;;;;11.60;7.50;;;;;;;;;;1038247;28;20072;-65
2023/10/28 01:45:24;;;;;;;11.13;7.20;;;;;;;;;;1035739;28;20054;-66
2023/10/28 01:45:54;;;;;;;11.55;7.40;;;;;;;;;;1038422;28;20053;-65
2023/10/28 01:46:25;;;;;;;10.65;7.43;;;;;;;;;;1036675;28;20156;-66
2023/10/28 01:46:56;;;;;;;9.70;6.72;;;;;;;;;;1036669;28;20115;-65
2023/10/28 01:47:27;;;;;;;11.68;7.63;;;;;;;;;;1036271;28;20056;-66
2023/10/28 01:47:58;;;;;;;10.63;7.75;;;;;;;;;;1037730;28;20046;-67
2023/10/28 01:48:29;;;;;;;10.25;7.15;;;;;;;;;;1036978;28;20053;-65
2023/10/28 01:48:59;;;;;;;11.68;7.72;;;;;;;;;;1038424;28;20049;-66
2023/10/28 01:49:31;;;;;;;12.20;7.45;;;;;;;;;;1037919;28;20045;-66
2023/10/28 01:50:01;;;;;;;11.75;7.75;;;;;;;;;;1036723;28;20042;-67
2023/10/28 01:50:32;;;;;;;10.60;7.78;;;;;;;;;;1036081;28;20128;-66
2023/10/28 01:51:03;;;;;;;11.35;7.28;;;;;;;;;;1036910;28;20535;-65
2023/10/28 01:51:33;;;;;;;10.73;7.30;;;;;;;;;;1036737;28;20490;-65
2023/10/28 01:52:07;;;;;;;11.25;7.63;;;;;;;;;;1037740;28;20436;-66
2023/10/28 01:52:39;;;;;;;10.88;7.00;;;;;;;;;;1036509;28;20060;-67
2023/10/28 01:53:09;;;;;;;12.88;7.03;;;;;;;;;;1035300;28;20050;-66
2023/10/28 01:53:40;;;;;;;13.98;6.90;;;;;;;;;;1036976;28;20065;-66
2023/10/28 01:54:10;;;;;;;9.50;6.90;;;;;;;;;;1037767;28;20049;-67
2023/10/28 01:54:41;;;;;;;10.27;6.20;;;;;;;;;;1037878;28;20049;-66
2023/10/28 01:55:11;;;;;;;8.13;5.90;;;;;;;;;;1037605;28;20045;-66
2023/10/28 01:55:44;;;;;;;10.43;7.05;;;;;;;;;;1035288;28;20050;-66
2023/10/28 01:56:15;;;;;;;9.73;6.32;;;;;;;;;;1034272;28;20042;-65
2023/10/28 01:56:46;;;;;;;7.00;4.97;;;;;;;;;;1036818;28;20053;-66
2023/10/28 01:57:16;;;;;;;9.18;5.20;;;;;;;;;;1037664;28;20056;-66
2023/10/28 01:57:47;;;;;;;6.70;5.22;;;;;;;;;;1036470;28;20045;-66
2023/10/28 01:58:17;;;;;;;7.45;5.13;;;;;;;;;;1037171;28;20060;-66
2023/10/28 01:58:48;;;;;;;6.13;4.78;;;;;;;;;;1037242;28;20054;-65
2023/10/28 01:59:20;;;;;;;6.50;4.85;;;;;;;;;;1038300;28;20115;-66
2023/10/28 01:59:52;;;;;;;7.95;5.10;;;;;;;;;;1037528;28;20179;-66
2023/10/28 02:00:22;;;;;;;6.68;4.88;;;;;;;;;;1037059;28;20517;-66
2023/10/28 02:00:53;;;;;;;6.90;4.20;;;;;;;;;;1037237;28;20065;-65
2023/10/28 02:01:25;;;;;;;5.75;4.20;;;;;;;;;;1038665;28;20049;-65
2023/10/28 02:01:56;;;;;;;9.05;4.03;;;;;;;;;;1036584;28;20061;-66
2023/10/28 02:02:27;;;;;;;4.95;3.85;;;;;;;;;;1035990;28;20058;-66
2023/10/28 02:02:57;;;;;;;5.15;3.92;;;;;;;;;;1037459;28;20163;-66
2023/10/28 02:03:28;;;;;;;8.40;3.65;;;;;;;;;;1037409;28;20808;-66
2023/10/28 02:03:59;;;;;;;5.78;4.10;;;;;;;;;;1037361;28;20045;-66
2023/10/28 02:04:30;;;;;;;5.18;4.15;;;;;;;;;;1036855;28;20785;-66
2023/10/28 02:05:01;;;;;;;5.43;3.78;;;;;;;;;;1035356;28;20085;-65
2023/10/28 02:05:32;;;;;;;5.00;4.00;;;;;;;;;;1036517;28;20049;-66
2023/10/28 02:06:04;;;;;;;6.32;4.18;;;;;;;;;;1037273;28;20049;-66
2023/10/28 02:06:34;;;;;;;4.97;3.88;;;;;;;;;;1036095;28;20049;-66
2023/10/28 02:07:06;;;;;;;4.93;3.53;;;;;;;;;;1038055;28;20056;-65
2023/10/28 02:07:37;;;;;;;7.43;4.43;;;;;;;;;;1036821;28;20084;-67
2023/10/28 02:08:08;;;;;;;5.88;3.97;;;;;;;;;;1035898;28;20419;-68
2023/10/28 02:08:38;;;;;;;4.78;3.88;;;;;;;;;;1037124;28;20417;-67
2023/10/28 02:09:08;;;;;;;5.95;4.22;;;;;;;;;;1038224;28;20133;-67
2023/10/28 02:09:39;;;;;;;8.05;4.22;;;;;;;;;;1035780;28;20175;-67
2023/10/28 02:10:10;;;;;;;6.25;4.47;;;;;;;;;;1036555;28;20504;-67
2023/10/28 02:10:40;;;;;;;5.53;3.72;;;;;;;;;;1036262;28;20053;-67
2023/10/28 02:11:11;;;;;;;5.78;4.25;;;;;;;;;;1035586;28;20045;-67
2023/10/28 02:11:42;;;;;;;8.35;4.63;;;;;;;;;;1035763;28;20492;-67
2023/10/28 02:12:14;;;;;;;5.53;4.07;;;;;;;;;;1036193;28;20516;-66
2023/10/28 02:12:45;;;;;;;6.97;4.10;;;;;;;;;;1037123;28;20065;-67
2023/10/28 02:13:16;;;;;;;6.43;4.20;;;;;;;;;;1033984;28;20077;-67
2023/10/28 02:13:46;;;;;;;5.88;3.88;;;;;;;;;;1036844;28;20049;-67
2023/10/28 02:14:17;;;;;;;7.43;4.20;;;;;;;;;;1036950;28;20060;-67
2023/10/28 02:14:47;;;;;;;6.57;3.70;;;;;;;;;;1036539;28;21722;-67
2023/10/28 02:15:18;;;;;;;6.00;4.10;;;;;;;;;;1035341;28;20481;-66
2023/10/28 02:15:49;;;;;;;7.10;4.25;;;;;;;;;;1035923;28;20581;-67
2023/10/28 02:16:20;;;;;;;4.82;3.83;;;;;;;;;;1036412;28;20158;-67
2023/10/28 02:16:50;;;;;;;6.18;4.40;;;;;;;;;;1037875;28;20053;-67
2023/10/28 02:17:21;;;;;;;4.45;3.85;;;;;;;;;;1036930;28;20141;-67
2023/10/28 02:17:52;;;;;;;12.90;4.60;;;;;;;;;;1036957;28;20414;-67
2023/10/28 02:18:23;;;;;;;5.15;4.18;;;;;;;;;;1036958;28;20049;-67
2023/10/28 02:18:54;;;;;;;5.00;3.60;;;;;;;;;;1037182;28;20127;-67
2023/10/28 02:19:25;;;;;;;4.68;3.70;;;;;;;;;;1037443;28;20049;-67
2023/10/28 02:19:56;;;;;;;5.53;3.80;;;;;;;;;;1038242;28;20050;-67
2023/10/28 02:20:28;;;;;;;4.97;3.35;;;;;;;;;;1036629;28;20541;-66
2023/10/28 02:20:58;;;;;;;5.57;3.70;;;;;;;;;;1037295;28;20116;-66
2023/10/28 02:21:29;;;;;;;5.03;3.42;;;;;;;;;;1036536;28;20053;-67
2023/10/28 02:21:59;;;;;;;5.20;3.50;;;;;;;;;;1037368;28;20049;-67
2023/10/28 02:22:33;;;;;;;6.93;3.33;;;;;;;;;;1035690;28;20044;-66
2023/10/28 02:23:04;;;;;;;4.55;3.88;;;;;;;;;;1037050;28;20724;-67
2023/10/28 02:23:34;;;;;;;6.90;3.53;;;;;;;;;;1037355;28;21784;-67
2023/10/28 02:24:05;;;;;;;5.88;3.85;;;;;;;;;;1036200;28;20037;-68
2023/10/28 02:24:37;;;;;;;5.15;3.60;;;;;;;;;;1035402;28;20053;-67
2023/10/28 02:25:08;;;;;;;4.22;3.33;;;;;;;;;;1037125;28;20053;-67
2023/10/28 02:25:41;;;;;;;5.22;3.67;;;;;;;;;;1036961;28;20527;-67
2023/10/28 02:26:12;;;;;;;5.68;3.60;;;;;;;;;;1037737;28;20080;-67
2023/10/28 02:26:43;;;;;;;5.18;3.60;;;;;;;;;;1037024;28;20056;-67
2023/10/28 02:27:14;;;;;;;4.32;3.00;;;;;;;;;;1036908;28;20045;-66
2023/10/28 02:27:44;;;;;;;4.43;3.30;;;;;;;;;;1037234;28;20057;-67
2023/10/28 02:28:15;;;;;;;4.88;3.72;;;;;;;;;;1036408;28;20084;-67
2023/10/28 02:28:46;;;;;;;5.22;3.70;;;;;;;;;;1037079;28;20084;-67
2023/10/28 02:29:16;;;;;;;4.95;3.58;;;;;;;;;;1036185;28;20076;-67
2023/10/28 02:29:47;;;;;;;4.43;3.03;;;;;;;;;;1037836;28;20096;-67
2023/10/28 02:30:17;;;;;;;5.57;3.25;;;;;;;;;;1036935;28;20045;-67
2023/10/28 02:30:47;;;;;;;6.38;3.80;;;;;;;;;;1038020;28;20064;-67
2023/10/28 02:31:18;;;;;;;4.88;3.97;;;;;;;;;;1035574;28;20569;-67
2023/10/28 02:31:48;;;;;;;3.72;2.90;;;;;;;;;;1036895;28;20107;-68
2023/10/28 02:32:19;;;;;;;4.28;3.60;;;;;;;;;;1037384;28;20056;-67
2023/10/28 02:32:51;;;;;;;5.10;3.40;;;;;;;;;;1037514;28;20049;-67
2023/10/28 02:33:21;;;;;;;5.03;3.60;;;;;;;;;;1035201;28;20061;-67
2023/10/28 02:33:51;;;;;;;7.47;3.45;;;;;;;;;;1037049;28;20294;-66
2023/10/28 02:34:22;;;;;;;6.00;3.90;;;;;;;;;;1038320;28;20049;-67
2023/10/28 02:34:53;;;;;;;6.10;3.50;;;;;;;;;;1035394;28;20050;-67
2023/10/28 02:35:24;;;;;;;6.28;3.40;;;;;;;;;;1036316;28;20119;-67
2023/10/28 02:35:54;;;;;;;4.75;3.58;;;;;;;;;;1036334;28;20049;-68
2023/10/28 02:36:25;;;;;;;4.80;3.70;;;;;;;;;;1036257;28;20044;-66
2023/10/28 02:36:55;;;;;;;6.38;3.50;;;;;;;;;;1037193;28;20107;-67
2023/10/28 02:37:26;;;;;;;4.25;3.40;;;;;;;;;;1036990;28;20060;-67
2023/10/28 02:37:57;;;;;;;5.75;3.97;;;;;;;;;;1037743;28;20486;-66
2023/10/28 02:38:27;;;;;;;4.72;3.58;;;;;;;;;;1035933;28;20132;-67
2023/10/28 02:38:58;;;;;;;4.53;3.65;;;;;;;;;;1037523;28;20048;-67
2023/10/28 02:39:30;;;;;;;5.38;3.80;;;;;;;;;;1036190;28;20079;-66
2023/10/28 02:40:01;;;;;;;5.68;3.72;;;;;;;;;;1036937;28;20087;-67
2023/10/28 02:40:31;;;;;;;4.30;3.55;;;;;;;;;;1037498;28;20115;-66
2023/10/28 02:41:05;;;;;;;4.85;3.83;;;;;;;;;;1036881;28;20413;-66
2023/10/28 02:41:36;;;;;;;5.18;4.00;;;;;;;;;;1037442;28;20049;-67
2023/10/28 02:42:06;;;;;;;4.82;3.88;;;;;;;;;;1032930;28;20053;-66
2023/10/28 02:42:37;;;;;;;8.35;4.00;;;;;;;;;;1035983;28;20053;-66
2023/10/28 02:43:07;;;;;;;5.35;4.13;;;;;;;;;;1036108;28;20050;-67
2023/10/28 02:43:39;;;;;;;9.05;4.05;;;;;;;;;;1037097;28;20045;-67
2023/10/28 02:44:10;;;;;;;4.82;3.50;;;;;;;;;;1035419;28;20058;-66
2023/10/28 02:44:40;;;;;;;4.35;3.67;;;;;;;;;;1037581;28;20061;-67
2023/10/28 02:45:11;;;;;;;4.45;3.67;;;;;;;;;;1036569;28;20049;-66
2023/10/28 02:45:41;;;;;;;4.60;3.53;;;;;;;;;;1036491;28;20425;-66
2023/10/28 02:46:23;;;;;;;4.57;3.83;;;;;;;;;;1037527;28;20053;-67
2023/10/28 02:46:54;;;;;;;5.05;3.88;;;;;;;;;;1034901;28;20131;-66
2023/10/28 02:47:24;;;;;;;4.78;3.88;;;;;;;;;;1036991;28;20049;-67
2023/10/28 02:47:55;;;;;;;4.05;3.47;;;;;;;;;;1037690;28;20049;-67
2023/10/28 02:48:26;;;;;;;4.47;3.22;;;;;;;;;;1036891;28;20068;-67
2023/10/28 02:48:56;;;;;;;7.78;3.70;;;;;;;;;;1035462;28;20056;-66
2023/10/28 02:49:27;;;;;;;5.70;3.63;;;;;;;;;;1036947;28;20114;-66
2023/10/28 02:49:57;;;;;;;4.82;3.42;;;;;;;;;;1037031;28;20129;-66
2023/10/28 02:50:28;;;;;;;3.70;3.08;;;;;;;;;;1035593;28;20057;-68
2023/10/28 02:51:06;;;;;;;4.28;3.28;;;;;;;;;;1036994;28;20049;-66
2023/10/28 02:51:37;;;;;;;3.97;3.15;;;;;;;;;;1036429;28;20037;-67
2023/10/28 02:52:07;;;;;;;3.97;3.20;;;;;;;;;;1036551;28;20057;-67
2023/10/28 02:52:38;;;;;;;6.13;3.35;;;;;;;;;;1036712;28;20052;-67
2023/10/28 02:53:09;;;;;;;4.47;3.58;;;;;;;;;;1037028;28;20072;-67
2023/10/28 02:53:40;;;;;;;4.45;3.47;;;;;;;;;;1036504;28;20050;-67
2023/10/28 02:54:11;;;;;;;5.05;3.72;;;;;;;;;;1035580;28;20146;-67
2023/10/28 02:54:41;;;;;;;5.47;3.85;;;;;;;;;;1036941;28;20053;-68
2023/10/28 02:55:12;;;;;;;4.38;3.58;;;;;;;;;;1037958;28;20482;-66
2023/10/28 02:55:43;;;;;;;4.55;3.42;;;;;;;;;;1037190;28;20053;-67
2023/10/28 02:56:13;;;;;;;3.97;3.25;;;;;;;;;;1037764;28;20049;-67
2023/10/28 02:56:45;;;;;;;4.55;3.70;;;;;;;;;;1036209;28;20088;-67
2023/10/28 02:57:15;;;;;;;6.35;3.35;;;;;;;;;;1037340;28;20045;-66
2023/10/28 02:57:45;;;;;;;4.47;3.25;;;;;;;;;;1036347;28;20052;-67
2023/10/28 02:58:16;;;;;;;4.50;3.70;;;;;;;;;;1037548;28;20073;-66
2023/10/28 02:58:46;;;;;;;3.92;3.10;;;;;;;;;;1036901;28;20053;-67
2023/10/28 02:59:17;;;;;;;8.07;3.47;;;;;;;;;;1038009;28;20049;-67
2023/10/28 02:59:47;;;;;;;3.67;2.95;;;;;;;;;;1034545;28;20045;-68
2023/10/28 03:00:18;;;;;;;3.50;2.92;;;;;;;;;;1036918;28;20128;-67
2023/10/28 03:00:49;;;;;;;4.53;3.47;;;;;;;;;;1036278;28;20052;-68
2023/10/28 03:01:19;;;;;;;4.18;3.33;;;;;;;;;;1037118;28;20619;-67
2023/10/28 03:01:50;;;;;;;4.47;3.30;;;;;;;;;;1036234;28;20045;-66
2023/10/28 03:02:20;;;;;;;5.03;3.55;;;;;;;;;;1037597;28;20061;-67
2023/10/28 03:02:52;;;;;;;6.18;2.97;;;;;;;;;;1035767;28;20058;-68
2023/10/28 03:03:23;;;;;;;4.43;3.10;;;;;;;;;;1036962;28;20053;-68
2023/10/28 03:03:54;;;;;;;3.50;2.90;;;;;;;;;;1036415;28;20418;-67
2023/10/28 03:04:24;;;;;;;3.35;2.90;;;;;;;;;;1036525;28;20490;-67